sensor_id;sensor_type;location;lat;lon;timestamp;temperature;humidity
71237;DHT22;58984;51.960;5.582;2023-12-14T00:01:57;14.00;65.40
71237;DHT22;58984;51.960;5.582;2023-12-14T00:04:23;14.10;65.50
71237;DHT22;58984;51.960;5.582;2023-12-14T00:06:51;14.10;65.50
71237;DHT22;58984;51.960;5.582;2023-12-14T00:12:13;14.00;65.50
71237;DHT22;58984;51.960;5.582;2023-12-14T00:14:45;14.10;65.20
71237;DHT22;58984;51.960;5.582;2023-12-14T00:17:19;14.10;65.40
71237;DHT22;58984;51.960;5.582;2023-12-14T00:19:48;14.00;64.80
71237;DHT22;58984;51.960;5.582;2023-12-14T00:22:14;14.00;64.90
71237;DHT22;58984;51.960;5.582;2023-12-14T00:24:43;14.00;65.10
71237;DHT22;58984;51.960;5.582;2023-12-14T00:27:08;14.00;65.40
71237;DHT22;58984;51.960;5.582;2023-12-14T00:29:39;14.00;65.10
71237;DHT22;58984;51.960;5.582;2023-12-14T00:32:15;14.00;65.20
71237;DHT22;58984;51.960;5.582;2023-12-14T00:34:45;13.90;65.10
71237;DHT22;58984;51.960;5.582;2023-12-14T00:37:11;14.00;65.10
71237;DHT22;58984;51.960;5.582;2023-12-14T00:39:37;14.00;64.90
71237;DHT22;58984;51.960;5.582;2023-12-14T00:42:02;14.00;65.00
71237;DHT22;58984;51.960;5.582;2023-12-14T00:44:28;14.00;65.00
71237;DHT22;58984;51.960;5.582;2023-12-14T00:46:54;14.00;65.00
71237;DHT22;58984;51.960;5.582;2023-12-14T00:49:20;13.90;64.80
71237;DHT22;58984;51.960;5.582;2023-12-14T00:51:49;13.90;64.80
71237;DHT22;58984;51.960;5.582;2023-12-14T00:54:22;13.90;64.70
71237;DHT22;58984;51.960;5.582;2023-12-14T00:56:48;13.90;64.80
71237;DHT22;58984;51.960;5.582;2023-12-14T00:59:14;13.90;64.70
71237;DHT22;58984;51.960;5.582;2023-12-14T01:01:39;13.90;64.60
71237;DHT22;58984;51.960;5.582;2023-12-14T01:04:05;13.90;64.80
71237;DHT22;58984;51.960;5.582;2023-12-14T01:06:35;13.90;64.70
71237;DHT22;58984;51.960;5.582;2023-12-14T01:09:04;13.90;64.80
71237;DHT22;58984;51.960;5.582;2023-12-14T01:11:29;13.80;64.40
71237;DHT22;58984;51.960;5.582;2023-12-14T01:13:58;13.80;64.40
71237;DHT22;58984;51.960;5.582;2023-12-14T01:16:26;13.80;64.50
71237;DHT22;58984;51.960;5.582;2023-12-14T01:18:55;13.80;64.70
71237;DHT22;58984;51.960;5.582;2023-12-14T01:21:23;13.80;64.20
71237;DHT22;58984;51.960;5.582;2023-12-14T01:23:52;13.80;64.70
71237;DHT22;58984;51.960;5.582;2023-12-14T01:26:20;13.80;64.70
71237;DHT22;58984;51.960;5.582;2023-12-14T01:31:37;13.80;64.50
71237;DHT22;58984;51.960;5.582;2023-12-14T01:34:11;13.80;64.40
71237;DHT22;58984;51.960;5.582;2023-12-14T01:36:40;13.70;64.40
71237;DHT22;58984;51.960;5.582;2023-12-14T01:39:15;13.80;64.70
71237;DHT22;58984;51.960;5.582;2023-12-14T01:44:49;13.70;64.50
71237;DHT22;58984;51.960;5.582;2023-12-14T01:47:17;13.70;64.20
71237;DHT22;58984;51.960;5.582;2023-12-14T01:49:53;13.70;64.40
71237;DHT22;58984;51.960;5.582;2023-12-14T01:52:36;13.70;64.00
71237;DHT22;58984;51.960;5.582;2023-12-14T01:55:08;13.60;64.20
71237;DHT22;58984;51.960;5.582;2023-12-14T01:57:34;13.70;64.50
71237;DHT22;58984;51.960;5.582;2023-12-14T02:00:00;13.70;64.10
71237;DHT22;58984;51.960;5.582;2023-12-14T02:02:31;13.70;64.20
71237;DHT22;58984;51.960;5.582;2023-12-14T02:05:06;13.70;64.00
71237;DHT22;58984;51.960;5.582;2023-12-14T02:07:42;13.60;64.20
71237;DHT22;58984;51.960;5.582;2023-12-14T02:10:17;13.60;64.20
71237;DHT22;58984;51.960;5.582;2023-12-14T02:12:46;13.70;64.20
71237;DHT22;58984;51.960;5.582;2023-12-14T02:15:12;13.70;64.10
71237;DHT22;58984;51.960;5.582;2023-12-14T02:17:40;13.70;64.10
71237;DHT22;58984;51.960;5.582;2023-12-14T02:20:06;13.60;63.90
71237;DHT22;58984;51.960;5.582;2023-12-14T02:22:48;13.60;64.10
71237;DHT22;58984;51.960;5.582;2023-12-14T02:25:16;13.60;64.30
71237;DHT22;58984;51.960;5.582;2023-12-14T02:27:41;13.60;64.20
71237;DHT22;58984;51.960;5.582;2023-12-14T02:30:10;13.60;64.10
71237;DHT22;58984;51.960;5.582;2023-12-14T02:32:39;13.60;64.30
71237;DHT22;58984;51.960;5.582;2023-12-14T02:35:06;13.50;64.00
71237;DHT22;58984;51.960;5.582;2023-12-14T02:37:35;13.60;64.20
71237;DHT22;58984;51.960;5.582;2023-12-14T02:40:06;13.50;64.10
71237;DHT22;58984;51.960;5.582;2023-12-14T02:42:35;13.50;64.10
71237;DHT22;58984;51.960;5.582;2023-12-14T02:45:03;13.50;63.90
71237;DHT22;58984;51.960;5.582;2023-12-14T02:47:32;13.50;64.10
71237;DHT22;58984;51.960;5.582;2023-12-14T02:50:00;13.60;64.20
71237;DHT22;58984;51.960;5.582;2023-12-14T02:52:26;13.50;63.60
71237;DHT22;58984;51.960;5.582;2023-12-14T02:54:51;13.50;63.70
71237;DHT22;58984;51.960;5.582;2023-12-14T02:57:17;13.50;64.00
71237;DHT22;58984;51.960;5.582;2023-12-14T02:59:43;13.50;63.90
71237;DHT22;58984;51.960;5.582;2023-12-14T03:02:09;13.50;63.90
71237;DHT22;58984;51.960;5.582;2023-12-14T03:04:37;13.40;63.80
71237;DHT22;58984;51.960;5.582;2023-12-14T03:07:03;13.50;64.10
71237;DHT22;58984;51.960;5.582;2023-12-14T03:09:29;13.50;63.80
71237;DHT22;58984;51.960;5.582;2023-12-14T03:11:55;13.50;64.00
71237;DHT22;58984;51.960;5.582;2023-12-14T03:14:31;13.40;63.90
71237;DHT22;58984;51.960;5.582;2023-12-14T03:16:57;13.40;64.10
71237;DHT22;58984;51.960;5.582;2023-12-14T03:19:27;13.50;63.90
71237;DHT22;58984;51.960;5.582;2023-12-14T03:21:53;13.40;64.10
71237;DHT22;58984;51.960;5.582;2023-12-14T03:24:21;13.40;63.70
71237;DHT22;58984;51.960;5.582;2023-12-14T03:26:52;13.40;63.70
71237;DHT22;58984;51.960;5.582;2023-12-14T03:29:22;13.40;64.10
71237;DHT22;58984;51.960;5.582;2023-12-14T03:31:47;13.40;64.00
71237;DHT22;58984;51.960;5.582;2023-12-14T03:34:17;13.50;63.70
71237;DHT22;58984;51.960;5.582;2023-12-14T03:36:42;13.40;64.00
71237;DHT22;58984;51.960;5.582;2023-12-14T03:39:08;13.40;63.60
71237;DHT22;58984;51.960;5.582;2023-12-14T03:41:34;13.40;63.70
71237;DHT22;58984;51.960;5.582;2023-12-14T03:44:07;13.40;63.70
71237;DHT22;58984;51.960;5.582;2023-12-14T03:46:33;13.40;63.60
71237;DHT22;58984;51.960;5.582;2023-12-14T03:48:59;13.40;63.70
71237;DHT22;58984;51.960;5.582;2023-12-14T03:51:28;13.40;63.90
71237;DHT22;58984;51.960;5.582;2023-12-14T03:53:53;13.40;63.90
71237;DHT22;58984;51.960;5.582;2023-12-14T03:56:22;13.40;63.80
71237;DHT22;58984;51.960;5.582;2023-12-14T03:58:50;13.40;63.70
71237;DHT22;58984;51.960;5.582;2023-12-14T04:01:20;13.40;63.80
71237;DHT22;58984;51.960;5.582;2023-12-14T04:03:49;13.40;64.00
71237;DHT22;58984;51.960;5.582;2023-12-14T04:06:32;13.40;63.50
71237;DHT22;58984;51.960;5.582;2023-12-14T04:09:07;13.30;63.90
71237;DHT22;58984;51.960;5.582;2023-12-14T04:14:17;13.30;63.70
71237;DHT22;58984;51.960;5.582;2023-12-14T04:16:48;13.30;63.90
71237;DHT22;58984;51.960;5.582;2023-12-14T04:19:13;13.30;63.50
71237;DHT22;58984;51.960;5.582;2023-12-14T04:21:44;13.30;63.50
71237;DHT22;58984;51.960;5.582;2023-12-14T04:24:20;13.30;63.50
71237;DHT22;58984;51.960;5.582;2023-12-14T04:26:47;13.30;63.80
71237;DHT22;58984;51.960;5.582;2023-12-14T04:29:15;13.30;63.50
71237;DHT22;58984;51.960;5.582;2023-12-14T04:31:41;13.30;63.60
71237;DHT22;58984;51.960;5.582;2023-12-14T04:34:07;13.30;63.60
71237;DHT22;58984;51.960;5.582;2023-12-14T04:36:37;13.30;63.60
71237;DHT22;58984;51.960;5.582;2023-12-14T04:39:05;13.30;63.60
71237;DHT22;58984;51.960;5.582;2023-12-14T04:41:31;13.30;63.70
71237;DHT22;58984;51.960;5.582;2023-12-14T04:43:56;13.30;63.60
71237;DHT22;58984;51.960;5.582;2023-12-14T04:46:24;13.30;63.40
71237;DHT22;58984;51.960;5.582;2023-12-14T04:48:50;13.30;63.60
71237;DHT22;58984;51.960;5.582;2023-12-14T04:51:18;13.30;63.50
71237;DHT22;58984;51.960;5.582;2023-12-14T04:53:46;13.30;63.60
71237;DHT22;58984;51.960;5.582;2023-12-14T04:56:12;13.30;63.40
71237;DHT22;58984;51.960;5.582;2023-12-14T04:58:41;13.20;63.40
71237;DHT22;58984;51.960;5.582;2023-12-14T05:01:07;13.20;63.50
71237;DHT22;58984;51.960;5.582;2023-12-14T05:03:35;13.20;63.50
71237;DHT22;58984;51.960;5.582;2023-12-14T05:06:01;13.20;63.70
71237;DHT22;58984;51.960;5.582;2023-12-14T05:08:27;13.20;64.30
71237;DHT22;58984;51.960;5.582;2023-12-14T05:10:52;13.20;63.60
71237;DHT22;58984;51.960;5.582;2023-12-14T05:13:18;13.20;63.40
71237;DHT22;58984;51.960;5.582;2023-12-14T05:15:48;13.20;63.40
71237;DHT22;58984;51.960;5.582;2023-12-14T05:18:20;13.20;63.50
71237;DHT22;58984;51.960;5.582;2023-12-14T05:20:46;13.20;63.50
71237;DHT22;58984;51.960;5.582;2023-12-14T05:23:12;13.20;63.40
71237;DHT22;58984;51.960;5.582;2023-12-14T05:25:38;13.20;63.50
71237;DHT22;58984;51.960;5.582;2023-12-14T05:28:04;13.20;63.30
71237;DHT22;58984;51.960;5.582;2023-12-14T05:30:30;13.20;63.30
71237;DHT22;58984;51.960;5.582;2023-12-14T05:32:55;13.20;63.40
71237;DHT22;58984;51.960;5.582;2023-12-14T05:35:21;13.10;63.50
71237;DHT22;58984;51.960;5.582;2023-12-14T05:37:47;13.20;63.50
71237;DHT22;58984;51.960;5.582;2023-12-14T05:40:16;13.20;63.40
71237;DHT22;58984;51.960;5.582;2023-12-14T05:42:42;13.20;63.60
71237;DHT22;58984;51.960;5.582;2023-12-14T05:45:08;13.20;63.40
71237;DHT22;58984;51.960;5.582;2023-12-14T05:47:34;13.20;63.50
71237;DHT22;58984;51.960;5.582;2023-12-14T05:50:03;13.10;63.30
71237;DHT22;58984;51.960;5.582;2023-12-14T05:52:30;13.10;63.60
71237;DHT22;58984;51.960;5.582;2023-12-14T05:54:55;13.10;63.40
71237;DHT22;58984;51.960;5.582;2023-12-14T05:57:24;13.10;63.40
71237;DHT22;58984;51.960;5.582;2023-12-14T05:59:50;13.10;63.60
71237;DHT22;58984;51.960;5.582;2023-12-14T06:02:16;13.10;64.40
71237;DHT22;58984;51.960;5.582;2023-12-14T06:04:42;13.10;63.40
71237;DHT22;58984;51.960;5.582;2023-12-14T06:07:08;13.10;63.30
71237;DHT22;58984;51.960;5.582;2023-12-14T06:09:34;13.10;63.20
71237;DHT22;58984;51.960;5.582;2023-12-14T06:12:06;13.10;63.30
71237;DHT22;58984;51.960;5.582;2023-12-14T06:14:32;13.10;64.40
71237;DHT22;58984;51.960;5.582;2023-12-14T06:16:58;13.10;63.30
71237;DHT22;58984;51.960;5.582;2023-12-14T06:19:24;13.10;63.20
71237;DHT22;58984;51.960;5.582;2023-12-14T06:21:50;13.10;63.30
71237;DHT22;58984;51.960;5.582;2023-12-14T06:24:15;13.10;63.20
71237;DHT22;58984;51.960;5.582;2023-12-14T06:26:45;13.10;63.40
71237;DHT22;58984;51.960;5.582;2023-12-14T06:29:11;13.00;63.70
71237;DHT22;58984;51.960;5.582;2023-12-14T06:31:40;13.00;63.50
71237;DHT22;58984;51.960;5.582;2023-12-14T06:34:06;13.00;63.40
71237;DHT22;58984;51.960;5.582;2023-12-14T06:36:32;13.00;63.30
71237;DHT22;58984;51.960;5.582;2023-12-14T06:38:59;13.00;63.50
71237;DHT22;58984;51.960;5.582;2023-12-14T06:41:26;13.00;63.40
71237;DHT22;58984;51.960;5.582;2023-12-14T06:43:52;13.00;63.50
71237;DHT22;58984;51.960;5.582;2023-12-14T06:46:18;13.10;63.50
71237;DHT22;58984;51.960;5.582;2023-12-14T06:48:45;13.00;63.40
71237;DHT22;58984;51.960;5.582;2023-12-14T06:51:10;13.00;63.40
71237;DHT22;58984;51.960;5.582;2023-12-14T06:53:38;13.00;63.20
71237;DHT22;58984;51.960;5.582;2023-12-14T06:56:05;13.00;63.50
71237;DHT22;58984;51.960;5.582;2023-12-14T06:58:31;13.00;63.40
71237;DHT22;58984;51.960;5.582;2023-12-14T07:01:00;13.00;63.20
71237;DHT22;58984;51.960;5.582;2023-12-14T07:03:26;13.00;63.10
71237;DHT22;58984;51.960;5.582;2023-12-14T07:05:57;13.00;63.10
71237;DHT22;58984;51.960;5.582;2023-12-14T07:08:32;13.00;63.30
71237;DHT22;58984;51.960;5.582;2023-12-14T07:11:14;13.00;63.20
71237;DHT22;58984;51.960;5.582;2023-12-14T07:13:48;12.90;63.20
71237;DHT22;58984;51.960;5.582;2023-12-14T07:16:14;13.00;63.30
71237;DHT22;58984;51.960;5.582;2023-12-14T07:18:42;13.00;62.90
71237;DHT22;58984;51.960;5.582;2023-12-14T07:21:09;13.00;63.30
71237;DHT22;58984;51.960;5.582;2023-12-14T07:26:47;13.00;63.50
71237;DHT22;58984;51.960;5.582;2023-12-14T07:29:31;13.00;63.10
71237;DHT22;58984;51.960;5.582;2023-12-14T07:31:57;12.90;62.80
71237;DHT22;58984;51.960;5.582;2023-12-14T07:34:25;12.90;62.70
71237;DHT22;58984;51.960;5.582;2023-12-14T07:36:53;12.90;63.20
71237;DHT22;58984;51.960;5.582;2023-12-14T07:52:14;12.90;62.80
71237;DHT22;58984;51.960;5.582;2023-12-14T07:54:40;12.90;62.90
71237;DHT22;58984;51.960;5.582;2023-12-14T07:57:05;12.80;62.80
71237;DHT22;58984;51.960;5.582;2023-12-14T07:59:31;12.80;62.90
71237;DHT22;58984;51.960;5.582;2023-12-14T08:01:57;12.80;62.80
71237;DHT22;58984;51.960;5.582;2023-12-14T08:04:22;12.80;62.70
71237;DHT22;58984;51.960;5.582;2023-12-14T08:06:49;12.80;62.70
71237;DHT22;58984;51.960;5.582;2023-12-14T08:09:14;12.90;62.80
71237;DHT22;58984;51.960;5.582;2023-12-14T08:11:40;12.80;62.80
71237;DHT22;58984;51.960;5.582;2023-12-14T08:14:06;12.80;62.70
71237;DHT22;58984;51.960;5.582;2023-12-14T08:16:31;12.80;62.60
71237;DHT22;58984;51.960;5.582;2023-12-14T08:18:57;12.80;62.60
71237;DHT22;58984;51.960;5.582;2023-12-14T08:21:23;12.80;62.60
71237;DHT22;58984;51.960;5.582;2023-12-14T08:23:49;12.80;62.50
71237;DHT22;58984;51.960;5.582;2023-12-14T08:26:15;12.80;63.30
71237;DHT22;58984;51.960;5.582;2023-12-14T08:28:40;12.80;62.60
71237;DHT22;58984;51.960;5.582;2023-12-14T08:31:06;12.80;62.50
71237;DHT22;58984;51.960;5.582;2023-12-14T08:33:33;12.80;62.50
71237;DHT22;58984;51.960;5.582;2023-12-14T08:35:59;12.80;62.50
71237;DHT22;58984;51.960;5.582;2023-12-14T08:38:24;12.80;62.50
71237;DHT22;58984;51.960;5.582;2023-12-14T08:40:50;12.80;62.50
71237;DHT22;58984;51.960;5.582;2023-12-14T08:43:16;12.80;62.40
71237;DHT22;58984;51.960;5.582;2023-12-14T08:45:42;12.70;62.40
71237;DHT22;58984;51.960;5.582;2023-12-14T08:48:08;12.80;62.50
71237;DHT22;58984;51.960;5.582;2023-12-14T08:50:34;12.70;62.40
71237;DHT22;58984;51.960;5.582;2023-12-14T08:52:59;12.70;62.40
71237;DHT22;58984;51.960;5.582;2023-12-14T08:55:26;12.70;62.40
71237;DHT22;58984;51.960;5.582;2023-12-14T08:57:52;12.80;61.60
71237;DHT22;58984;51.960;5.582;2023-12-14T09:00:18;12.70;61.40
71237;DHT22;58984;51.960;5.582;2023-12-14T09:02:47;12.60;61.30
71237;DHT22;58984;51.960;5.582;2023-12-14T09:05:13;12.60;61.80
71237;DHT22;58984;51.960;5.582;2023-12-14T09:07:40;12.60;61.90
71237;DHT22;58984;51.960;5.582;2023-12-14T09:10:06;12.60;62.00
71237;DHT22;58984;51.960;5.582;2023-12-14T09:12:32;12.60;62.00
71237;DHT22;58984;51.960;5.582;2023-12-14T09:14:59;12.60;62.00
71237;DHT22;58984;51.960;5.582;2023-12-14T09:17:24;12.60;62.10
71237;DHT22;58984;51.960;5.582;2023-12-14T09:19:50;12.60;62.10
71237;DHT22;58984;51.960;5.582;2023-12-14T09:22:16;12.60;62.10
71237;DHT22;58984;51.960;5.582;2023-12-14T09:24:43;12.70;62.20
71237;DHT22;58984;51.960;5.582;2023-12-14T09:27:08;12.70;62.10
71237;DHT22;58984;51.960;5.582;2023-12-14T09:29:34;12.70;62.10
71237;DHT22;58984;51.960;5.582;2023-12-14T09:32:00;12.60;61.90
71237;DHT22;58984;51.960;5.582;2023-12-14T09:34:25;12.70;62.10
71237;DHT22;58984;51.960;5.582;2023-12-14T09:36:51;12.60;61.90
71237;DHT22;58984;51.960;5.582;2023-12-14T09:39:17;12.60;62.00
71237;DHT22;58984;51.960;5.582;2023-12-14T09:41:44;12.60;62.00
71237;DHT22;58984;51.960;5.582;2023-12-14T09:44:12;12.60;62.10
71237;DHT22;58984;51.960;5.582;2023-12-14T09:46:38;12.60;62.10
71237;DHT22;58984;51.960;5.582;2023-12-14T09:49:04;12.60;62.10
71237;DHT22;58984;51.960;5.582;2023-12-14T09:51:31;12.60;62.10
71237;DHT22;58984;51.960;5.582;2023-12-14T09:53:57;12.60;62.00
71237;DHT22;58984;51.960;5.582;2023-12-14T09:56:26;12.60;62.10
71237;DHT22;58984;51.960;5.582;2023-12-14T09:58:52;12.60;62.10
71237;DHT22;58984;51.960;5.582;2023-12-14T10:01:22;12.60;62.00
71237;DHT22;58984;51.960;5.582;2023-12-14T10:03:48;12.60;62.00
71237;DHT22;58984;51.960;5.582;2023-12-14T10:06:14;12.60;62.00
71237;DHT22;58984;51.960;5.582;2023-12-14T10:08:39;12.60;62.10
71237;DHT22;58984;51.960;5.582;2023-12-14T10:11:15;12.60;62.00
71237;DHT22;58984;51.960;5.582;2023-12-14T10:13:40;12.60;62.00
71237;DHT22;58984;51.960;5.582;2023-12-14T10:16:07;12.60;62.00
71237;DHT22;58984;51.960;5.582;2023-12-14T10:18:33;12.60;62.00
71237;DHT22;58984;51.960;5.582;2023-12-14T10:21:01;12.60;62.10
71237;DHT22;58984;51.960;5.582;2023-12-14T10:23:27;12.60;62.10
71237;DHT22;58984;51.960;5.582;2023-12-14T10:25:53;12.60;62.10
71237;DHT22;58984;51.960;5.582;2023-12-14T10:28:19;12.60;62.20
71237;DHT22;58984;51.960;5.582;2023-12-14T10:30:45;12.60;62.30
71237;DHT22;58984;51.960;5.582;2023-12-14T10:33:11;12.60;62.30
71237;DHT22;58984;51.960;5.582;2023-12-14T10:35:36;12.60;62.40
71237;DHT22;58984;51.960;5.582;2023-12-14T10:38:04;12.60;62.40
71237;DHT22;58984;51.960;5.582;2023-12-14T10:40:34;12.60;62.20
71237;DHT22;58984;51.960;5.582;2023-12-14T10:43:00;12.60;62.30
71237;DHT22;58984;51.960;5.582;2023-12-14T10:45:35;12.60;62.20
71237;DHT22;58984;51.960;5.582;2023-12-14T10:48:01;12.60;62.20
71237;DHT22;58984;51.960;5.582;2023-12-14T10:50:30;12.50;62.20
71237;DHT22;58984;51.960;5.582;2023-12-14T10:52:57;12.60;62.40
71237;DHT22;58984;51.960;5.582;2023-12-14T10:55:28;12.60;62.40
71237;DHT22;58984;51.960;5.582;2023-12-14T10:57:59;12.60;62.40
71237;DHT22;58984;51.960;5.582;2023-12-14T11:00:26;12.60;62.40
71237;DHT22;58984;51.960;5.582;2023-12-14T11:02:52;12.60;62.40
71237;DHT22;58984;51.960;5.582;2023-12-14T11:05:18;12.60;62.30
71237;DHT22;58984;51.960;5.582;2023-12-14T11:08:02;12.60;62.40
71237;DHT22;58984;51.960;5.582;2023-12-14T11:10:42;12.60;62.40
71237;DHT22;58984;51.960;5.582;2023-12-14T11:13:13;12.60;62.30
71237;DHT22;58984;51.960;5.582;2023-12-14T11:15:48;12.60;62.30
71237;DHT22;58984;51.960;5.582;2023-12-14T11:18:20;12.60;62.30
71237;DHT22;58984;51.960;5.582;2023-12-14T11:23:17;12.60;62.40
71237;DHT22;58984;51.960;5.582;2023-12-14T11:25:58;12.60;62.40
71237;DHT22;58984;51.960;5.582;2023-12-14T11:28:24;12.60;62.30
71237;DHT22;58984;51.960;5.582;2023-12-14T11:30:50;12.60;62.30
71237;DHT22;58984;51.960;5.582;2023-12-14T11:33:16;12.60;62.40
71237;DHT22;58984;51.960;5.582;2023-12-14T11:35:42;12.60;62.40
71237;DHT22;58984;51.960;5.582;2023-12-14T11:38:08;12.60;62.40
71237;DHT22;58984;51.960;5.582;2023-12-14T11:40:39;12.60;62.40
71237;DHT22;58984;51.960;5.582;2023-12-14T11:43:05;12.60;62.50
71237;DHT22;58984;51.960;5.582;2023-12-14T11:45:34;12.60;62.50
71237;DHT22;58984;51.960;5.582;2023-12-14T11:48:01;12.60;62.70
71237;DHT22;58984;51.960;5.582;2023-12-14T11:50:30;12.60;62.80
71237;DHT22;58984;51.960;5.582;2023-12-14T11:52:56;12.60;62.80
71237;DHT22;58984;51.960;5.582;2023-12-14T11:55:22;12.60;62.90
71237;DHT22;58984;51.960;5.582;2023-12-14T11:57:48;12.60;63.00
71237;DHT22;58984;51.960;5.582;2023-12-14T12:00:14;12.70;63.20
71237;DHT22;58984;51.960;5.582;2023-12-14T12:02:40;12.70;63.10
71237;DHT22;58984;51.960;5.582;2023-12-14T12:05:06;12.70;62.70
71237;DHT22;58984;51.960;5.582;2023-12-14T12:07:33;12.80;62.60
71237;DHT22;58984;51.960;5.582;2023-12-14T12:09:59;12.80;62.40
71237;DHT22;58984;51.960;5.582;2023-12-14T12:12:24;12.80;62.40
71237;DHT22;58984;51.960;5.582;2023-12-14T12:14:50;12.80;62.40
71237;DHT22;58984;51.960;5.582;2023-12-14T12:17:18;12.80;62.50
71237;DHT22;58984;51.960;5.582;2023-12-14T12:19:47;12.90;62.60
71237;DHT22;58984;51.960;5.582;2023-12-14T12:22:12;12.90;62.40
71237;DHT22;58984;51.960;5.582;2023-12-14T12:24:38;12.90;63.20
71237;DHT22;58984;51.960;5.582;2023-12-14T12:27:04;12.90;62.40
71237;DHT22;58984;51.960;5.582;2023-12-14T12:29:30;13.00;62.40
71237;DHT22;58984;51.960;5.582;2023-12-14T12:31:56;13.00;62.20
71237;DHT22;58984;51.960;5.582;2023-12-14T12:34:21;13.00;62.20
71237;DHT22;58984;51.960;5.582;2023-12-14T12:36:47;13.00;62.00
71237;DHT22;58984;51.960;5.582;2023-12-14T12:39:13;13.00;61.90
71237;DHT22;58984;51.960;5.582;2023-12-14T12:41:39;13.00;61.90
71237;DHT22;58984;51.960;5.582;2023-12-14T12:44:05;13.10;60.60
71237;DHT22;58984;51.960;5.582;2023-12-14T12:46:37;13.00;60.40
71237;DHT22;58984;51.960;5.582;2023-12-14T12:49:04;13.00;60.60
71237;DHT22;58984;51.960;5.582;2023-12-14T12:51:31;13.00;61.00
71237;DHT22;58984;51.960;5.582;2023-12-14T12:54:00;13.00;61.30
71237;DHT22;58984;51.960;5.582;2023-12-14T12:56:26;13.00;61.30
71237;DHT22;58984;51.960;5.582;2023-12-14T12:58:53;13.00;61.70
71237;DHT22;58984;51.960;5.582;2023-12-14T13:01:22;13.00;61.70
71237;DHT22;58984;51.960;5.582;2023-12-14T13:03:52;13.00;61.70
71237;DHT22;58984;51.960;5.582;2023-12-14T13:06:18;13.00;61.80
71237;DHT22;58984;51.960;5.582;2023-12-14T13:08:43;13.00;61.80
71237;DHT22;58984;51.960;5.582;2023-12-14T13:11:09;13.10;61.90
71237;DHT22;58984;51.960;5.582;2023-12-14T13:13:35;13.10;61.90
71237;DHT22;58984;51.960;5.582;2023-12-14T13:16:00;13.00;61.80
71237;DHT22;58984;51.960;5.582;2023-12-14T13:18:26;13.00;61.80
71237;DHT22;58984;51.960;5.582;2023-12-14T13:20:52;13.00;61.80
71237;DHT22;58984;51.960;5.582;2023-12-14T13:23:17;13.00;61.80
71237;DHT22;58984;51.960;5.582;2023-12-14T13:25:43;13.00;61.80
71237;DHT22;58984;51.960;5.582;2023-12-14T13:28:10;13.00;61.80
71237;DHT22;58984;51.960;5.582;2023-12-14T13:30:36;13.00;61.70
71237;DHT22;58984;51.960;5.582;2023-12-14T13:33:01;13.00;61.80
71237;DHT22;58984;51.960;5.582;2023-12-14T13:35:29;13.00;61.80
71237;DHT22;58984;51.960;5.582;2023-12-14T13:37:55;13.00;61.80
71237;DHT22;58984;51.960;5.582;2023-12-14T13:40:21;13.10;61.90
71237;DHT22;58984;51.960;5.582;2023-12-14T13:42:46;13.00;61.70
71237;DHT22;58984;51.960;5.582;2023-12-14T13:45:13;13.00;61.80
71237;DHT22;58984;51.960;5.582;2023-12-14T13:47:38;13.00;61.80
71237;DHT22;58984;51.960;5.582;2023-12-14T13:50:04;13.00;61.80
71237;DHT22;58984;51.960;5.582;2023-12-14T13:52:30;13.00;61.80
71237;DHT22;58984;51.960;5.582;2023-12-14T13:54:56;13.00;61.80
71237;DHT22;58984;51.960;5.582;2023-12-14T13:57:24;13.00;61.80
71237;DHT22;58984;51.960;5.582;2023-12-14T13:59:50;13.00;61.80
71237;DHT22;58984;51.960;5.582;2023-12-14T14:02:16;13.00;61.80
71237;DHT22;58984;51.960;5.582;2023-12-14T14:04:41;13.00;61.80
71237;DHT22;58984;51.960;5.582;2023-12-14T14:07:07;13.00;61.80
71237;DHT22;58984;51.960;5.582;2023-12-14T14:09:42;13.00;61.70
71237;DHT22;58984;51.960;5.582;2023-12-14T14:12:08;13.00;61.70
71237;DHT22;58984;51.960;5.582;2023-12-14T14:14:33;13.00;61.80
71237;DHT22;58984;51.960;5.582;2023-12-14T14:16:59;13.10;61.90
71237;DHT22;58984;51.960;5.582;2023-12-14T14:19:25;13.10;61.90
71237;DHT22;58984;51.960;5.582;2023-12-14T14:21:50;13.10;61.90
71237;DHT22;58984;51.960;5.582;2023-12-14T14:24:16;13.10;61.80
71237;DHT22;58984;51.960;5.582;2023-12-14T14:26:42;13.10;61.90
71237;DHT22;58984;51.960;5.582;2023-12-14T14:29:07;13.10;61.80
71237;DHT22;58984;51.960;5.582;2023-12-14T14:31:36;13.10;61.80
71237;DHT22;58984;51.960;5.582;2023-12-14T14:34:02;13.10;61.80
71237;DHT22;58984;51.960;5.582;2023-12-14T14:36:27;13.10;61.90
71237;DHT22;58984;51.960;5.582;2023-12-14T14:38:53;13.10;61.90
71237;DHT22;58984;51.960;5.582;2023-12-14T14:41:20;13.10;61.90
71237;DHT22;58984;51.960;5.582;2023-12-14T14:43:46;13.10;61.80
71237;DHT22;58984;51.960;5.582;2023-12-14T14:46:12;13.10;61.90
71237;DHT22;58984;51.960;5.582;2023-12-14T14:48:38;13.10;61.90
71237;DHT22;58984;51.960;5.582;2023-12-14T14:51:04;13.10;61.80
71237;DHT22;58984;51.960;5.582;2023-12-14T14:53:30;13.10;61.90
71237;DHT22;58984;51.960;5.582;2023-12-14T14:55:56;13.10;61.80
71237;DHT22;58984;51.960;5.582;2023-12-14T14:58:22;13.10;61.80
71237;DHT22;58984;51.960;5.582;2023-12-14T15:00:48;13.10;61.80
71237;DHT22;58984;51.960;5.582;2023-12-14T15:03:14;13.10;61.90
71237;DHT22;58984;51.960;5.582;2023-12-14T15:05:40;13.00;61.80
71237;DHT22;58984;51.960;5.582;2023-12-14T15:08:06;13.00;61.80
71237;DHT22;58984;51.960;5.582;2023-12-14T15:10:35;13.10;61.90
71237;DHT22;58984;51.960;5.582;2023-12-14T15:13:00;13.00;61.70
71237;DHT22;58984;51.960;5.582;2023-12-14T15:15:26;13.10;61.90
71237;DHT22;58984;51.960;5.582;2023-12-14T15:17:52;13.00;61.80
71237;DHT22;58984;51.960;5.582;2023-12-14T15:20:18;13.00;61.70
71237;DHT22;58984;51.960;5.582;2023-12-14T15:22:43;13.00;61.80
71237;DHT22;58984;51.960;5.582;2023-12-14T15:25:09;13.10;61.90
71237;DHT22;58984;51.960;5.582;2023-12-14T15:27:36;13.00;61.80
71237;DHT22;58984;51.960;5.582;2023-12-14T15:30:02;13.00;61.80
71237;DHT22;58984;51.960;5.582;2023-12-14T15:32:30;13.00;61.80
71237;DHT22;58984;51.960;5.582;2023-12-14T15:34:55;13.00;61.80
71237;DHT22;58984;51.960;5.582;2023-12-14T15:37:21;13.00;61.80
71237;DHT22;58984;51.960;5.582;2023-12-14T15:39:47;13.00;61.80
71237;DHT22;58984;51.960;5.582;2023-12-14T15:42:17;13.00;61.80
71237;DHT22;58984;51.960;5.582;2023-12-14T15:44:43;12.90;61.70
71237;DHT22;58984;51.960;5.582;2023-12-14T15:47:11;13.00;61.80
71237;DHT22;58984;51.960;5.582;2023-12-14T15:49:37;13.00;61.80
71237;DHT22;58984;51.960;5.582;2023-12-14T15:52:03;13.00;61.80
71237;DHT22;58984;51.960;5.582;2023-12-14T15:54:29;13.00;61.80
71237;DHT22;58984;51.960;5.582;2023-12-14T15:56:55;13.00;61.80
71237;DHT22;58984;51.960;5.582;2023-12-14T15:59:20;13.00;61.80
71237;DHT22;58984;51.960;5.582;2023-12-14T16:01:46;13.00;61.80